sensor_id;sensor_type;location;lat;lon;timestamp;P1;durP1;ratioP1;P2;durP2;ratioP2
84893;SDS011;75409;50.000;9.432;2024-01-10T00:01:50;11.70;;;5.83;;
84893;SDS011;75409;50.000;9.432;2024-01-10T00:04:15;10.25;;;6.20;;
84893;SDS011;75409;50.000;9.432;2024-01-10T00:06:41;10.43;;;4.50;;
84893;SDS011;75409;50.000;9.432;2024-01-10T00:09:07;10.57;;;4.95;;
84893;SDS011;75409;50.000;9.432;2024-01-10T00:11:33;10.43;;;5.55;;
84893;SDS011;75409;50.000;9.432;2024-01-10T00:13:58;11.23;;;5.53;;
84893;SDS011;75409;50.000;9.432;2024-01-10T00:16:25;9.35;;;5.43;;
84893;SDS011;75409;50.000;9.432;2024-01-10T00:18:51;10.80;;;4.85;;
84893;SDS011;75409;50.000;9.432;2024-01-10T00:21:16;10.97;;;5.20;;
84893;SDS011;75409;50.000;9.432;2024-01-10T00:23:42;12.10;;;5.37;;
84893;SDS011;75409;50.000;9.432;2024-01-10T00:26:07;10.20;;;5.20;;
84893;SDS011;75409;50.000;9.432;2024-01-10T00:28:32;11.20;;;4.93;;
84893;SDS011;75409;50.000;9.432;2024-01-10T00:30:57;10.00;;;5.80;;
84893;SDS011;75409;50.000;9.432;2024-01-10T00:33:23;14.30;;;5.87;;
84893;SDS011;75409;50.000;9.432;2024-01-10T00:35:48;12.27;;;4.80;;
84893;SDS011;75409;50.000;9.432;2024-01-10T00:38:13;12.93;;;5.93;;
84893;SDS011;75409;50.000;9.432;2024-01-10T00:40:39;13.93;;;7.23;;
84893;SDS011;75409;50.000;9.432;2024-01-10T00:43:04;11.13;;;5.03;;
84893;SDS011;75409;50.000;9.432;2024-01-10T00:45:29;10.20;;;6.05;;
84893;SDS011;75409;50.000;9.432;2024-01-10T00:47:55;11.52;;;6.25;;
84893;SDS011;75409;50.000;9.432;2024-01-10T00:50:20;10.52;;;5.00;;
84893;SDS011;75409;50.000;9.432;2024-01-10T00:52:46;10.75;;;5.70;;
84893;SDS011;75409;50.000;9.432;2024-01-10T00:55:11;10.77;;;6.03;;
84893;SDS011;75409;50.000;9.432;2024-01-10T00:57:37;15.02;;;6.82;;
84893;SDS011;75409;50.000;9.432;2024-01-10T01:00:03;12.38;;;5.25;;
84893;SDS011;75409;50.000;9.432;2024-01-10T01:02:32;11.82;;;5.35;;
84893;SDS011;75409;50.000;9.432;2024-01-10T01:04:57;13.43;;;5.57;;
84893;SDS011;75409;50.000;9.432;2024-01-10T01:07:23;13.20;;;8.37;;
84893;SDS011;75409;50.000;9.432;2024-01-10T01:09:48;12.38;;;7.13;;
84893;SDS011;75409;50.000;9.432;2024-01-10T01:12:13;11.23;;;7.00;;
84893;SDS011;75409;50.000;9.432;2024-01-10T01:14:39;10.65;;;5.78;;
84893;SDS011;75409;50.000;9.432;2024-01-10T01:17:04;11.20;;;5.47;;
84893;SDS011;75409;50.000;9.432;2024-01-10T01:19:29;9.93;;;5.43;;
84893;SDS011;75409;50.000;9.432;2024-01-10T01:21:55;10.47;;;4.80;;
84893;SDS011;75409;50.000;9.432;2024-01-10T01:24:20;10.50;;;5.13;;
84893;SDS011;75409;50.000;9.432;2024-01-10T01:26:45;11.93;;;5.03;;
84893;SDS011;75409;50.000;9.432;2024-01-10T01:29:10;12.30;;;6.73;;
84893;SDS011;75409;50.000;9.432;2024-01-10T01:31:36;11.85;;;6.47;;
84893;SDS011;75409;50.000;9.432;2024-01-10T01:34:02;10.98;;;5.00;;
84893;SDS011;75409;50.000;9.432;2024-01-10T01:36:27;11.43;;;5.00;;
84893;SDS011;75409;50.000;9.432;2024-01-10T01:38:53;8.38;;;5.25;;
84893;SDS011;75409;50.000;9.432;2024-01-10T01:41:18;11.97;;;5.83;;
84893;SDS011;75409;50.000;9.432;2024-01-10T01:43:44;11.65;;;7.03;;
84893;SDS011;75409;50.000;9.432;2024-01-10T01:46:09;9.98;;;5.15;;
84893;SDS011;75409;50.000;9.432;2024-01-10T01:48:35;10.02;;;4.97;;
84893;SDS011;75409;50.000;9.432;2024-01-10T01:51:02;9.70;;;5.50;;
84893;SDS011;75409;50.000;9.432;2024-01-10T01:53:29;12.32;;;5.72;;
84893;SDS011;75409;50.000;9.432;2024-01-10T01:55:55;12.60;;;6.00;;
84893;SDS011;75409;50.000;9.432;2024-01-10T01:58:21;7.72;;;4.28;;
84893;SDS011;75409;50.000;9.432;2024-01-10T02:00:47;11.35;;;5.18;;
84893;SDS011;75409;50.000;9.432;2024-01-10T02:03:13;8.65;;;4.38;;
84893;SDS011;75409;50.000;9.432;2024-01-10T02:05:38;11.95;;;6.50;;
84893;SDS011;75409;50.000;9.432;2024-01-10T02:08:04;11.60;;;5.93;;
84893;SDS011;75409;50.000;9.432;2024-01-10T02:10:29;8.75;;;5.05;;
84893;SDS011;75409;50.000;9.432;2024-01-10T02:12:54;15.23;;;5.80;;
84893;SDS011;75409;50.000;9.432;2024-01-10T02:15:20;11.02;;;5.43;;
84893;SDS011;75409;50.000;9.432;2024-01-10T02:17:45;9.30;;;5.22;;
84893;SDS011;75409;50.000;9.432;2024-01-10T02:20:11;8.37;;;5.67;;
84893;SDS011;75409;50.000;9.432;2024-01-10T02:22:37;16.67;;;6.00;;
84893;SDS011;75409;50.000;9.432;2024-01-10T02:25:06;16.50;;;5.68;;
84893;SDS011;75409;50.000;9.432;2024-01-10T02:29:58;8.82;;;4.57;;
84893;SDS011;75409;50.000;9.432;2024-01-10T02:32:24;9.55;;;3.83;;
84893;SDS011;75409;50.000;9.432;2024-01-10T02:34:49;10.05;;;4.82;;
84893;SDS011;75409;50.000;9.432;2024-01-10T02:37:15;12.77;;;4.70;;
84893;SDS011;75409;50.000;9.432;2024-01-10T02:39:40;9.53;;;5.13;;
84893;SDS011;75409;50.000;9.432;2024-01-10T02:42:05;9.80;;;4.83;;
84893;SDS011;75409;50.000;9.432;2024-01-10T02:44:30;11.33;;;5.13;;
84893;SDS011;75409;50.000;9.432;2024-01-10T02:46:56;8.20;;;5.20;;
84893;SDS011;75409;50.000;9.432;2024-01-10T02:49:21;12.13;;;5.70;;
84893;SDS011;75409;50.000;9.432;2024-01-10T02:51:46;14.20;;;6.13;;
84893;SDS011;75409;50.000;9.432;2024-01-10T02:54:12;11.67;;;6.30;;
84893;SDS011;75409;50.000;9.432;2024-01-10T02:56:37;11.15;;;5.22;;
84893;SDS011;75409;50.000;9.432;2024-01-10T02:59:02;11.10;;;5.20;;
84893;SDS011;75409;50.000;9.432;2024-01-10T03:01:28;11.20;;;5.00;;
84893;SDS011;75409;50.000;9.432;2024-01-10T03:03:53;14.40;;;5.63;;
84893;SDS011;75409;50.000;9.432;2024-01-10T03:06:19;10.48;;;5.05;;
84893;SDS011;75409;50.000;9.432;2024-01-10T03:08:44;12.43;;;5.32;;
84893;SDS011;75409;50.000;9.432;2024-01-10T03:11:09;7.63;;;5.87;;
84893;SDS011;75409;50.000;9.432;2024-01-10T03:13:34;8.73;;;4.83;;
84893;SDS011;75409;50.000;9.432;2024-01-10T03:16:00;12.80;;;6.27;;
84893;SDS011;75409;50.000;9.432;2024-01-10T03:18:25;9.75;;;6.03;;
84893;SDS011;75409;50.000;9.432;2024-01-10T03:20:50;10.13;;;5.17;;
84893;SDS011;75409;50.000;9.432;2024-01-10T03:23:16;7.67;;;4.50;;
84893;SDS011;75409;50.000;9.432;2024-01-10T03:25:41;9.67;;;5.73;;
84893;SDS011;75409;50.000;9.432;2024-01-10T03:28:07;10.68;;;5.45;;
84893;SDS011;75409;50.000;9.432;2024-01-10T03:30:32;11.47;;;5.30;;
84893;SDS011;75409;50.000;9.432;2024-01-10T03:32:57;8.23;;;4.73;;
84893;SDS011;75409;50.000;9.432;2024-01-10T03:35:23;7.33;;;4.77;;
84893;SDS011;75409;50.000;9.432;2024-01-10T03:37:48;9.60;;;6.43;;
84893;SDS011;75409;50.000;9.432;2024-01-10T03:40:13;10.73;;;4.90;;
84893;SDS011;75409;50.000;9.432;2024-01-10T03:42:39;7.47;;;4.88;;
84893;SDS011;75409;50.000;9.432;2024-01-10T03:45:05;9.65;;;5.18;;
84893;SDS011;75409;50.000;9.432;2024-01-10T03:47:30;9.52;;;5.20;;
84893;SDS011;75409;50.000;9.432;2024-01-10T03:49:55;7.50;;;4.93;;
84893;SDS011;75409;50.000;9.432;2024-01-10T03:52:21;10.43;;;5.60;;
84893;SDS011;75409;50.000;9.432;2024-01-10T03:54:46;10.18;;;5.00;;
84893;SDS011;75409;50.000;9.432;2024-01-10T03:57:12;12.98;;;7.35;;
84893;SDS011;75409;50.000;9.432;2024-01-10T03:59:37;10.13;;;5.00;;
84893;SDS011;75409;50.000;9.432;2024-01-10T04:02:02;12.50;;;5.00;;
84893;SDS011;75409;50.000;9.432;2024-01-10T04:04:28;13.43;;;5.53;;
84893;SDS011;75409;50.000;9.432;2024-01-10T04:06:54;9.00;;;5.10;;
84893;SDS011;75409;50.000;9.432;2024-01-10T04:09:19;8.13;;;5.60;;
84893;SDS011;75409;50.000;9.432;2024-01-10T04:11:45;12.47;;;5.40;;
84893;SDS011;75409;50.000;9.432;2024-01-10T04:14:10;16.05;;;6.30;;
84893;SDS011;75409;50.000;9.432;2024-01-10T04:16:36;9.95;;;5.22;;
84893;SDS011;75409;50.000;9.432;2024-01-10T04:19:01;11.73;;;5.23;;
84893;SDS011;75409;50.000;9.432;2024-01-10T04:21:26;18.35;;;8.73;;
84893;SDS011;75409;50.000;9.432;2024-01-10T04:23:52;15.50;;;7.13;;
84893;SDS011;75409;50.000;9.432;2024-01-10T04:26:17;16.92;;;5.90;;
84893;SDS011;75409;50.000;9.432;2024-01-10T04:28:43;11.63;;;6.72;;
84893;SDS011;75409;50.000;9.432;2024-01-10T04:31:08;11.02;;;6.50;;
84893;SDS011;75409;50.000;9.432;2024-01-10T04:33:33;22.98;;;10.02;;
84893;SDS011;75409;50.000;9.432;2024-01-10T04:35:59;21.25;;;9.95;;
84893;SDS011;75409;50.000;9.432;2024-01-10T04:38:24;13.07;;;7.25;;
84893;SDS011;75409;50.000;9.432;2024-01-10T04:40:51;16.17;;;7.35;;
84893;SDS011;75409;50.000;9.432;2024-01-10T04:43:17;16.70;;;8.00;;
84893;SDS011;75409;50.000;9.432;2024-01-10T04:45:42;14.73;;;7.37;;
84893;SDS011;75409;50.000;9.432;2024-01-10T04:48:07;14.95;;;6.70;;
84893;SDS011;75409;50.000;9.432;2024-01-10T04:50:34;14.55;;;7.93;;
84893;SDS011;75409;50.000;9.432;2024-01-10T04:52:59;12.40;;;6.82;;
84893;SDS011;75409;50.000;9.432;2024-01-10T04:55:25;12.43;;;7.18;;
84893;SDS011;75409;50.000;9.432;2024-01-10T04:57:50;12.33;;;6.67;;
84893;SDS011;75409;50.000;9.432;2024-01-10T05:00:15;12.87;;;8.67;;
84893;SDS011;75409;50.000;9.432;2024-01-10T05:02:41;11.40;;;7.25;;
84893;SDS011;75409;50.000;9.432;2024-01-10T05:05:06;11.03;;;6.63;;
84893;SDS011;75409;50.000;9.432;2024-01-10T05:07:32;13.48;;;6.68;;
84893;SDS011;75409;50.000;9.432;2024-01-10T05:09:57;11.35;;;6.32;;
84893;SDS011;75409;50.000;9.432;2024-01-10T05:12:22;13.00;;;6.47;;
84893;SDS011;75409;50.000;9.432;2024-01-10T05:14:48;13.00;;;6.22;;
84893;SDS011;75409;50.000;9.432;2024-01-10T05:17:13;11.07;;;7.33;;
84893;SDS011;75409;50.000;9.432;2024-01-10T05:19:38;13.25;;;6.20;;
84893;SDS011;75409;50.000;9.432;2024-01-10T05:22:04;13.60;;;6.45;;
84893;SDS011;75409;50.000;9.432;2024-01-10T05:24:30;15.37;;;6.50;;
84893;SDS011;75409;50.000;9.432;2024-01-10T05:26:55;13.07;;;5.27;;
84893;SDS011;75409;50.000;9.432;2024-01-10T05:29:20;12.50;;;7.63;;
84893;SDS011;75409;50.000;9.432;2024-01-10T05:31:48;11.07;;;5.00;;
84893;SDS011;75409;50.000;9.432;2024-01-10T05:34:14;11.20;;;4.72;;
84893;SDS011;75409;50.000;9.432;2024-01-10T05:36:39;14.13;;;7.13;;
84893;SDS011;75409;50.000;9.432;2024-01-10T05:39:04;11.15;;;4.95;;
84893;SDS011;75409;50.000;9.432;2024-01-10T05:41:30;9.63;;;4.77;;
84893;SDS011;75409;50.000;9.432;2024-01-10T05:43:55;10.33;;;5.43;;
84893;SDS011;75409;50.000;9.432;2024-01-10T05:46:20;13.97;;;7.03;;
84893;SDS011;75409;50.000;9.432;2024-01-10T05:48:46;14.43;;;6.93;;
84893;SDS011;75409;50.000;9.432;2024-01-10T05:51:11;20.17;;;8.85;;
84893;SDS011;75409;50.000;9.432;2024-01-10T05:53:37;27.63;;;11.55;;
84893;SDS011;75409;50.000;9.432;2024-01-10T05:56:03;20.38;;;10.30;;
84893;SDS011;75409;50.000;9.432;2024-01-10T05:58:30;14.45;;;8.10;;
84893;SDS011;75409;50.000;9.432;2024-01-10T06:00:56;15.73;;;7.40;;
84893;SDS011;75409;50.000;9.432;2024-01-10T06:03:21;19.20;;;7.90;;
84893;SDS011;75409;50.000;9.432;2024-01-10T06:05:46;13.50;;;6.60;;
84893;SDS011;75409;50.000;9.432;2024-01-10T06:08:11;13.37;;;7.77;;
84893;SDS011;75409;50.000;9.432;2024-01-10T06:10:39;16.23;;;9.15;;
84893;SDS011;75409;50.000;9.432;2024-01-10T06:13:04;13.87;;;6.70;;
84893;SDS011;75409;50.000;9.432;2024-01-10T06:18:16;13.10;;;6.03;;
84893;SDS011;75409;50.000;9.432;2024-01-10T06:20:42;12.20;;;6.82;;
84893;SDS011;75409;50.000;9.432;2024-01-10T06:23:07;11.32;;;7.07;;
84893;SDS011;75409;50.000;9.432;2024-01-10T06:25:32;14.85;;;6.00;;
84893;SDS011;75409;50.000;9.432;2024-01-10T06:27:58;8.13;;;5.27;;
84893;SDS011;75409;50.000;9.432;2024-01-10T06:30:23;14.18;;;6.35;;
84893;SDS011;75409;50.000;9.432;2024-01-10T06:32:48;12.90;;;8.07;;
84893;SDS011;75409;50.000;9.432;2024-01-10T06:35:14;12.00;;;7.23;;
84893;SDS011;75409;50.000;9.432;2024-01-10T06:37:40;7.93;;;5.20;;
84893;SDS011;75409;50.000;9.432;2024-01-10T06:40:05;9.90;;;6.07;;
84893;SDS011;75409;50.000;9.432;2024-01-10T06:42:31;17.42;;;7.75;;
84893;SDS011;75409;50.000;9.432;2024-01-10T06:44:56;14.13;;;6.20;;
84893;SDS011;75409;50.000;9.432;2024-01-10T06:47:22;14.50;;;6.80;;
84893;SDS011;75409;50.000;9.432;2024-01-10T06:49:47;12.77;;;5.93;;
84893;SDS011;75409;50.000;9.432;2024-01-10T06:52:12;14.73;;;6.53;;
84893;SDS011;75409;50.000;9.432;2024-01-10T06:54:38;14.33;;;7.47;;
84893;SDS011;75409;50.000;9.432;2024-01-10T06:57:03;17.53;;;6.93;;
84893;SDS011;75409;50.000;9.432;2024-01-10T06:59:28;16.77;;;7.75;;
84893;SDS011;75409;50.000;9.432;2024-01-10T07:01:54;11.27;;;7.07;;
84893;SDS011;75409;50.000;9.432;2024-01-10T07:04:21;13.10;;;7.45;;
84893;SDS011;75409;50.000;9.432;2024-01-10T07:06:48;12.63;;;6.47;;
84893;SDS011;75409;50.000;9.432;2024-01-10T07:09:14;10.13;;;5.43;;
84893;SDS011;75409;50.000;9.432;2024-01-10T07:11:44;18.92;;;8.80;;
84893;SDS011;75409;50.000;9.432;2024-01-10T07:14:13;11.73;;;7.47;;
84893;SDS011;75409;50.000;9.432;2024-01-10T07:16:39;11.68;;;6.75;;
84893;SDS011;75409;50.000;9.432;2024-01-10T07:19:07;14.50;;;6.40;;
84893;SDS011;75409;50.000;9.432;2024-01-10T07:21:38;11.75;;;6.00;;
84893;SDS011;75409;50.000;9.432;2024-01-10T07:24:04;12.38;;;6.45;;
84893;SDS011;75409;50.000;9.432;2024-01-10T07:26:29;12.60;;;6.73;;
84893;SDS011;75409;50.000;9.432;2024-01-10T07:28:54;14.53;;;5.53;;
84893;SDS011;75409;50.000;9.432;2024-01-10T07:31:20;11.33;;;6.10;;
84893;SDS011;75409;50.000;9.432;2024-01-10T07:33:45;9.43;;;5.80;;
84893;SDS011;75409;50.000;9.432;2024-01-10T07:36:10;10.93;;;4.87;;
84893;SDS011;75409;50.000;9.432;2024-01-10T07:38:35;10.23;;;5.93;;
84893;SDS011;75409;50.000;9.432;2024-01-10T07:41:01;10.27;;;5.50;;
84893;SDS011;75409;50.000;9.432;2024-01-10T07:43:27;14.20;;;5.53;;
84893;SDS011;75409;50.000;9.432;2024-01-10T07:45:52;10.90;;;6.03;;
84893;SDS011;75409;50.000;9.432;2024-01-10T07:48:18;12.18;;;7.30;;
84893;SDS011;75409;50.000;9.432;2024-01-10T07:50:43;11.15;;;5.50;;
84893;SDS011;75409;50.000;9.432;2024-01-10T07:53:09;12.10;;;7.90;;
84893;SDS011;75409;50.000;9.432;2024-01-10T07:55:35;13.48;;;5.93;;
84893;SDS011;75409;50.000;9.432;2024-01-10T07:58:00;14.20;;;6.87;;
84893;SDS011;75409;50.000;9.432;2024-01-10T08:00:26;12.13;;;6.15;;
84893;SDS011;75409;50.000;9.432;2024-01-10T08:02:51;12.87;;;6.20;;
84893;SDS011;75409;50.000;9.432;2024-01-10T08:05:16;13.10;;;6.40;;
84893;SDS011;75409;50.000;9.432;2024-01-10T08:07:42;13.88;;;7.68;;
84893;SDS011;75409;50.000;9.432;2024-01-10T08:10:08;15.47;;;7.50;;
84893;SDS011;75409;50.000;9.432;2024-01-10T08:12:34;9.90;;;6.20;;
84893;SDS011;75409;50.000;9.432;2024-01-10T08:15:00;15.30;;;6.97;;
84893;SDS011;75409;50.000;9.432;2024-01-10T08:17:25;14.17;;;6.77;;
84893;SDS011;75409;50.000;9.432;2024-01-10T08:19:51;15.63;;;7.77;;
84893;SDS011;75409;50.000;9.432;2024-01-10T08:22:17;11.40;;;4.72;;
84893;SDS011;75409;50.000;9.432;2024-01-10T08:24:42;16.45;;;8.02;;
84893;SDS011;75409;50.000;9.432;2024-01-10T08:27:21;11.80;;;7.25;;
84893;SDS011;75409;50.000;9.432;2024-01-10T08:29:48;11.80;;;7.28;;
84893;SDS011;75409;50.000;9.432;2024-01-10T08:32:13;11.37;;;6.37;;
84893;SDS011;75409;50.000;9.432;2024-01-10T08:34:38;11.93;;;6.53;;
84893;SDS011;75409;50.000;9.432;2024-01-10T08:37:04;14.07;;;6.03;;
84893;SDS011;75409;50.000;9.432;2024-01-10T08:39:29;10.43;;;5.70;;
84893;SDS011;75409;50.000;9.432;2024-01-10T08:41:55;13.25;;;6.10;;
84893;SDS011;75409;50.000;9.432;2024-01-10T08:44:21;17.98;;;7.13;;
84893;SDS011;75409;50.000;9.432;2024-01-10T08:46:47;21.90;;;8.55;;
84893;SDS011;75409;50.000;9.432;2024-01-10T08:49:13;21.02;;;9.63;;
84893;SDS011;75409;50.000;9.432;2024-01-10T08:51:38;22.30;;;9.63;;
84893;SDS011;75409;50.000;9.432;2024-01-10T08:54:05;25.55;;;13.05;;
84893;SDS011;75409;50.000;9.432;2024-01-10T08:56:31;24.25;;;10.27;;
84893;SDS011;75409;50.000;9.432;2024-01-10T08:58:56;22.85;;;9.43;;
84893;SDS011;75409;50.000;9.432;2024-01-10T09:01:21;18.70;;;9.87;;
84893;SDS011;75409;50.000;9.432;2024-01-10T09:03:47;17.92;;;8.85;;
84893;SDS011;75409;50.000;9.432;2024-01-10T09:06:13;27.05;;;13.75;;
84893;SDS011;75409;50.000;9.432;2024-01-10T09:08:39;25.00;;;11.67;;
84893;SDS011;75409;50.000;9.432;2024-01-10T09:11:04;26.77;;;13.60;;
84893;SDS011;75409;50.000;9.432;2024-01-10T09:13:29;33.97;;;15.80;;
84893;SDS011;75409;50.000;9.432;2024-01-10T09:15:55;28.10;;;14.17;;
84893;SDS011;75409;50.000;9.432;2024-01-10T09:18:20;36.57;;;21.03;;
84893;SDS011;75409;50.000;9.432;2024-01-10T09:20:46;34.38;;;18.70;;
84893;SDS011;75409;50.000;9.432;2024-01-10T09:23:13;36.08;;;16.58;;
84893;SDS011;75409;50.000;9.432;2024-01-10T09:25:39;31.05;;;18.70;;
84893;SDS011;75409;50.000;9.432;2024-01-10T09:28:04;25.17;;;11.33;;
84893;SDS011;75409;50.000;9.432;2024-01-10T09:30:29;24.10;;;12.75;;
84893;SDS011;75409;50.000;9.432;2024-01-10T09:32:55;27.87;;;13.10;;
84893;SDS011;75409;50.000;9.432;2024-01-10T09:35:21;20.23;;;10.95;;
84893;SDS011;75409;50.000;9.432;2024-01-10T09:37:46;17.88;;;7.95;;
84893;SDS011;75409;50.000;9.432;2024-01-10T09:40:13;28.00;;;13.13;;
84893;SDS011;75409;50.000;9.432;2024-01-10T09:42:39;21.02;;;12.68;;
84893;SDS011;75409;50.000;9.432;2024-01-10T09:45:05;15.10;;;8.32;;
84893;SDS011;75409;50.000;9.432;2024-01-10T09:47:31;15.38;;;10.10;;
84893;SDS011;75409;50.000;9.432;2024-01-10T09:49:57;14.63;;;8.32;;
84893;SDS011;75409;50.000;9.432;2024-01-10T09:52:26;21.75;;;10.88;;
84893;SDS011;75409;50.000;9.432;2024-01-10T09:54:55;17.38;;;8.68;;
84893;SDS011;75409;50.000;9.432;2024-01-10T09:57:22;13.85;;;7.90;;
84893;SDS011;75409;50.000;9.432;2024-01-10T09:59:49;13.57;;;6.13;;
84893;SDS011;75409;50.000;9.432;2024-01-10T10:02:16;9.50;;;5.95;;
84893;SDS011;75409;50.000;9.432;2024-01-10T10:04:43;16.20;;;7.68;;
84893;SDS011;75409;50.000;9.432;2024-01-10T10:07:15;16.20;;;7.13;;
84893;SDS011;75409;50.000;9.432;2024-01-10T10:09:41;10.95;;;6.40;;
84893;SDS011;75409;50.000;9.432;2024-01-10T10:12:06;16.70;;;7.97;;
84893;SDS011;75409;50.000;9.432;2024-01-10T10:14:32;15.73;;;6.78;;
84893;SDS011;75409;50.000;9.432;2024-01-10T10:17:06;12.57;;;5.97;;
84893;SDS011;75409;50.000;9.432;2024-01-10T10:19:39;10.90;;;6.47;;
84893;SDS011;75409;50.000;9.432;2024-01-10T10:22:08;13.87;;;6.70;;
84893;SDS011;75409;50.000;9.432;2024-01-10T10:24:34;16.25;;;7.28;;
84893;SDS011;75409;50.000;9.432;2024-01-10T10:26:59;13.73;;;6.67;;
84893;SDS011;75409;50.000;9.432;2024-01-10T10:29:25;18.87;;;7.53;;
84893;SDS011;75409;50.000;9.432;2024-01-10T10:31:50;13.55;;;7.50;;
84893;SDS011;75409;50.000;9.432;2024-01-10T10:34:17;17.90;;;7.67;;
84893;SDS011;75409;50.000;9.432;2024-01-10T10:36:45;16.10;;;7.57;;
84893;SDS011;75409;50.000;9.432;2024-01-10T10:39:14;15.55;;;7.03;;
84893;SDS011;75409;50.000;9.432;2024-01-10T10:41:41;17.75;;;6.60;;
84893;SDS011;75409;50.000;9.432;2024-01-10T10:44:07;13.23;;;7.32;;
84893;SDS011;75409;50.000;9.432;2024-01-10T10:46:34;13.43;;;8.85;;
84893;SDS011;75409;50.000;9.432;2024-01-10T10:49:00;13.68;;;6.20;;
84893;SDS011;75409;50.000;9.432;2024-01-10T10:51:34;18.17;;;9.73;;
84893;SDS011;75409;50.000;9.432;2024-01-10T10:54:01;12.77;;;6.57;;
84893;SDS011;75409;50.000;9.432;2024-01-10T10:56:29;13.63;;;6.30;;
84893;SDS011;75409;50.000;9.432;2024-01-10T10:58:55;15.15;;;7.68;;
84893;SDS011;75409;50.000;9.432;2024-01-10T11:01:22;13.68;;;7.80;;
84893;SDS011;75409;50.000;9.432;2024-01-10T11:03:48;14.00;;;7.07;;
84893;SDS011;75409;50.000;9.432;2024-01-10T11:06:13;14.82;;;6.82;;
84893;SDS011;75409;50.000;9.432;2024-01-10T11:20:09;11.95;;;5.93;;
84893;SDS011;75409;50.000;9.432;2024-01-10T11:25:32;16.40;;;8.25;;
84893;SDS011;75409;50.000;9.432;2024-01-10T11:27:57;13.68;;;6.68;;
84893;SDS011;75409;50.000;9.432;2024-01-10T11:30:34;16.10;;;7.05;;
84893;SDS011;75409;50.000;9.432;2024-01-10T11:33:01;11.85;;;6.57;;
84893;SDS011;75409;50.000;9.432;2024-01-10T11:35:27;14.35;;;6.75;;
84893;SDS011;75409;50.000;9.432;2024-01-10T11:37:57;17.27;;;7.40;;
84893;SDS011;75409;50.000;9.432;2024-01-10T11:43:13;14.15;;;7.40;;
84893;SDS011;75409;50.000;9.432;2024-01-10T11:45:49;13.48;;;7.18;;
84893;SDS011;75409;50.000;9.432;2024-01-10T11:48:15;12.50;;;6.72;;
84893;SDS011;75409;50.000;9.432;2024-01-10T11:50:41;11.40;;;6.25;;
84893;SDS011;75409;50.000;9.432;2024-01-10T11:53:07;13.00;;;7.28;;
84893;SDS011;75409;50.000;9.432;2024-01-10T11:55:46;12.93;;;6.60;;
84893;SDS011;75409;50.000;9.432;2024-01-10T11:58:11;13.02;;;8.05;;
84893;SDS011;75409;50.000;9.432;2024-01-10T12:00:37;14.97;;;6.90;;
84893;SDS011;75409;50.000;9.432;2024-01-10T12:03:02;15.27;;;8.00;;
84893;SDS011;75409;50.000;9.432;2024-01-10T12:05:28;15.95;;;7.55;;
84893;SDS011;75409;50.000;9.432;2024-01-10T12:07:54;12.85;;;6.68;;
84893;SDS011;75409;50.000;9.432;2024-01-10T12:10:20;14.82;;;7.30;;
84893;SDS011;75409;50.000;9.432;2024-01-10T12:12:45;16.63;;;9.20;;
84893;SDS011;75409;50.000;9.432;2024-01-10T12:15:11;12.65;;;6.68;;
84893;SDS011;75409;50.000;9.432;2024-01-10T12:17:36;13.93;;;7.63;;
84893;SDS011;75409;50.000;9.432;2024-01-10T12:20:01;14.77;;;7.57;;
84893;SDS011;75409;50.000;9.432;2024-01-10T12:22:27;14.23;;;6.80;;
84893;SDS011;75409;50.000;9.432;2024-01-10T12:24:52;15.63;;;6.77;;
84893;SDS011;75409;50.000;9.432;2024-01-10T12:27:20;16.27;;;8.03;;
84893;SDS011;75409;50.000;9.432;2024-01-10T12:29:49;15.75;;;6.93;;
84893;SDS011;75409;50.000;9.432;2024-01-10T12:32:17;14.55;;;7.13;;
84893;SDS011;75409;50.000;9.432;2024-01-10T12:34:43;12.50;;;6.90;;
84893;SDS011;75409;50.000;9.432;2024-01-10T12:37:10;16.02;;;8.45;;
84893;SDS011;75409;50.000;9.432;2024-01-10T12:39:36;16.33;;;6.78;;
84893;SDS011;75409;50.000;9.432;2024-01-10T12:42:03;14.10;;;8.20;;
84893;SDS011;75409;50.000;9.432;2024-01-10T12:44:32;14.02;;;7.68;;
84893;SDS011;75409;50.000;9.432;2024-01-10T12:46:57;15.63;;;6.57;;
84893;SDS011;75409;50.000;9.432;2024-01-10T12:49:23;14.60;;;7.93;;
84893;SDS011;75409;50.000;9.432;2024-01-10T12:51:48;14.43;;;7.90;;
84893;SDS011;75409;50.000;9.432;2024-01-10T12:54:14;20.20;;;8.93;;
84893;SDS011;75409;50.000;9.432;2024-01-10T12:56:41;13.40;;;8.10;;
84893;SDS011;75409;50.000;9.432;2024-01-10T12:59:07;15.02;;;7.75;;
84893;SDS011;75409;50.000;9.432;2024-01-10T13:01:34;14.57;;;7.32;;
84893;SDS011;75409;50.000;9.432;2024-01-10T13:04:00;14.93;;;6.78;;
84893;SDS011;75409;50.000;9.432;2024-01-10T13:06:25;12.15;;;7.15;;
84893;SDS011;75409;50.000;9.432;2024-01-10T13:08:50;14.03;;;7.57;;
84893;SDS011;75409;50.000;9.432;2024-01-10T13:11:16;13.50;;;6.77;;
84893;SDS011;75409;50.000;9.432;2024-01-10T13:13:41;18.75;;;8.82;;
84893;SDS011;75409;50.000;9.432;2024-01-10T13:16:08;13.32;;;7.60;;
84893;SDS011;75409;50.000;9.432;2024-01-10T13:18:35;16.20;;;7.40;;
84893;SDS011;75409;50.000;9.432;2024-01-10T13:21:01;15.60;;;6.93;;
84893;SDS011;75409;50.000;9.432;2024-01-10T13:23:27;15.77;;;7.50;;
84893;SDS011;75409;50.000;9.432;2024-01-10T13:25:52;14.80;;;7.73;;
84893;SDS011;75409;50.000;9.432;2024-01-10T13:28:18;15.73;;;7.90;;
84893;SDS011;75409;50.000;9.432;2024-01-10T13:30:44;15.10;;;8.07;;
84893;SDS011;75409;50.000;9.432;2024-01-10T13:33:09;16.03;;;8.30;;
84893;SDS011;75409;50.000;9.432;2024-01-10T13:35:35;14.25;;;7.32;;
84893;SDS011;75409;50.000;9.432;2024-01-10T13:38:01;14.95;;;7.85;;
84893;SDS011;75409;50.000;9.432;2024-01-10T13:40:26;15.23;;;7.87;;
84893;SDS011;75409;50.000;9.432;2024-01-10T13:42:52;17.27;;;7.03;;
84893;SDS011;75409;50.000;9.432;2024-01-10T13:45:18;14.23;;;8.52;;
84893;SDS011;75409;50.000;9.432;2024-01-10T13:47:44;13.75;;;8.35;;
84893;SDS011;75409;50.000;9.432;2024-01-10T13:50:09;12.48;;;7.70;;
84893;SDS011;75409;50.000;9.432;2024-01-10T13:52:35;11.80;;;7.95;;
84893;SDS011;75409;50.000;9.432;2024-01-10T13:55:01;13.93;;;7.88;;
84893;SDS011;75409;50.000;9.432;2024-01-10T13:57:26;16.60;;;7.78;;
84893;SDS011;75409;50.000;9.432;2024-01-10T13:59:52;17.23;;;9.23;;
84893;SDS011;75409;50.000;9.432;2024-01-10T14:02:20;14.38;;;7.82;;
84893;SDS011;75409;50.000;9.432;2024-01-10T14:04:48;12.73;;;6.90;;
84893;SDS011;75409;50.000;9.432;2024-01-10T14:07:14;13.00;;;7.20;;
84893;SDS011;75409;50.000;9.432;2024-01-10T14:09:39;17.85;;;8.55;;
84893;SDS011;75409;50.000;9.432;2024-01-10T14:12:04;11.90;;;6.87;;
84893;SDS011;75409;50.000;9.432;2024-01-10T14:14:31;12.50;;;6.93;;
84893;SDS011;75409;50.000;9.432;2024-01-10T14:16:57;15.48;;;7.15;;
84893;SDS011;75409;50.000;9.432;2024-01-10T14:19:22;13.88;;;9.00;;
84893;SDS011;75409;50.000;9.432;2024-01-10T14:21:47;16.23;;;8.23;;
84893;SDS011;75409;50.000;9.432;2024-01-10T14:24:13;15.13;;;7.87;;
84893;SDS011;75409;50.000;9.432;2024-01-10T14:26:38;16.07;;;8.67;;
84893;SDS011;75409;50.000;9.432;2024-01-10T14:29:04;12.82;;;7.38;;
84893;SDS011;75409;50.000;9.432;2024-01-10T14:31:31;39.33;;;17.20;;
84893;SDS011;75409;50.000;9.432;2024-01-10T14:33:56;31.80;;;13.07;;
84893;SDS011;75409;50.000;9.432;2024-01-10T14:36:22;36.10;;;18.00;;
84893;SDS011;75409;50.000;9.432;2024-01-10T14:38:47;19.55;;;10.60;;
84893;SDS011;75409;50.000;9.432;2024-01-10T14:41:12;16.23;;;8.45;;
84893;SDS011;75409;50.000;9.432;2024-01-10T14:43:38;17.73;;;8.00;;
84893;SDS011;75409;50.000;9.432;2024-01-10T14:46:04;14.63;;;7.43;;
84893;SDS011;75409;50.000;9.432;2024-01-10T14:48:32;14.07;;;7.47;;
84893;SDS011;75409;50.000;9.432;2024-01-10T14:51:00;14.30;;;8.05;;